Terminal Aerodrome Forecast
Issued by NWS Kansas City/Pleasant Hill, MO

Home | Current Version | Previous Version | Text Only | Print | Product List | Glossary On
Versions: 1 2 3 4 5 6 7 8 9 10 11 12 13 14 15 16 17 18
047
FTUS43 KEAX 101720
TAFMCI
TAF
KMCI 101720Z 1018/1118 20012G18KT P6SM SCT100
     FM110200 06007KT P6SM BKN040
     FM110700 05008KT P6SM BKN025=

USA.gov is the U.S. government's official web portal to all federal, state and local government web resources and services.